CFG1580 EDDF-LGKR
Flight info
| Callsign | CFG1580 |
|---|---|
| Flight time | N/A |
| Altitude | 35000 |
| Route | CINDY6F/25C CINDY Z74 LAMPU DCT NOMBO Y161 MAH DCT VAVOR DCT RADIZ DCT NERRA DCT KOFER DCT RODON DCT LIMJA N732 PITAS |
| Aircraft | A321/M-SDE3FGIJ1LORVWXYZ/LB1 |
Departure
| Time | 2026-05-04 13:02 |
|---|---|
| Airport | Frankfurt Main Airport (EDDF) |
Arrival
| Time | N/A |
|---|---|
| Airport | Corfu Ioannis Kapodistrias International Airport (LGKR) |
| Time | Latitude | Longitude | Altitude | Speed | Heading |
|---|---|---|---|---|---|
| 2026-05-04 12:25 | 50.04748 | 8.58173 | 362 ft | 0 kts | 159° |
| 2026-05-04 12:48 | 50.04760 | 8.58166 | 366 ft | 4 kts | 159° |
| 2026-05-04 12:48 | 50.04785 | 8.58151 | 361 ft | 4 kts | 150° |
| 2026-05-04 12:48 | 50.04805 | 8.58127 | 364 ft | 4 kts | 123° |
| 2026-05-04 12:48 | 50.04812 | 8.58092 | 360 ft | 3 kts | 72° |
| 2026-05-04 12:49 | 50.04811 | 8.58087 | 359 ft | 0 kts | 70° |
| 2026-05-04 12:51 | 50.04821 | 8.58130 | 364 ft | 9 kts | 70° |
| 2026-05-04 12:51 | 50.04841 | 8.58212 | 361 ft | 7 kts | 70° |
| 2026-05-04 12:52 | 50.04861 | 8.58296 | 363 ft | 9 kts | 69° |
| 2026-05-04 12:52 | 50.04883 | 8.58388 | 362 ft | 12 kts | 69° |
| 2026-05-04 12:52 | 50.04928 | 8.58570 | 360 ft | 19 kts | 69° |
| 2026-05-04 12:52 | 50.04903 | 8.58680 | 361 ft | 8 kts | 160° |
| 2026-05-04 12:53 | 50.04860 | 8.58702 | 366 ft | 9 kts | 160° |
| 2026-05-04 12:53 | 50.04766 | 8.58756 | 369 ft | 15 kts | 161° |
| 2026-05-04 12:53 | 50.04700 | 8.58768 | 372 ft | 7 kts | 185° |
| 2026-05-04 12:53 | 50.04660 | 8.58761 | 370 ft | 5 kts | 187° |
| 2026-05-04 12:54 | 50.04638 | 8.58756 | 370 ft | 0 kts | 188° |
| 2026-05-04 12:56 | 50.04635 | 8.58756 | 370 ft | 3 kts | 188° |
| 2026-05-04 12:57 | 50.04609 | 8.58739 | 371 ft | 6 kts | 212° |
| 2026-05-04 12:57 | 50.04556 | 8.58674 | 371 ft | 13 kts | 217° |
| 2026-05-04 12:57 | 50.04495 | 8.58595 | 370 ft | 10 kts | 229° |
| 2026-05-04 12:57 | 50.04477 | 8.58544 | 370 ft | 0 kts | 250° |
| 2026-05-04 13:01 | 50.04476 | 8.58536 | 370 ft | 4 kts | 250° |
| 2026-05-04 13:01 | 50.04408 | 8.58254 | 371 ft | 61 kts | 249° |
| 2026-05-04 13:02 | 50.04188 | 8.57328 | 367 ft | 119 kts | 249° |
| 2026-05-04 13:02 | 50.03844 | 8.55890 | 354 ft | 162 kts | 250° |
| 2026-05-04 13:02 | 50.03409 | 8.54125 | 624 ft | 177 kts | 247° |
| 2026-05-04 13:02 | 50.02974 | 8.52334 | 1248 ft | 177 kts | 250° |
| 2026-05-04 13:03 | 50.02546 | 8.50545 | 1859 ft | 178 kts | 244° |
| 2026-05-04 13:03 | 50.01682 | 8.49097 | 2087 ft | 198 kts | 206° |
| 2026-05-04 13:03 | 50.00327 | 8.48402 | 2388 ft | 211 kts | 195° |
| 2026-05-04 13:03 | 49.98831 | 8.48442 | 2876 ft | 225 kts | 160° |
| 2026-05-04 13:04 | 49.97631 | 8.49927 | 3637 ft | 227 kts | 126° |
| 2026-05-04 13:04 | 49.96855 | 8.52073 | 4297 ft | 231 kts | 121° |
| 2026-05-04 13:04 | 49.96055 | 8.54291 | 4771 ft | 244 kts | 121° |
| 2026-05-04 13:04 | 49.95186 | 8.56681 | 5100 ft | 264 kts | 121° |
| 2026-05-04 13:05 | 49.94311 | 8.59288 | 5552 ft | 280 kts | 110° |
| 2026-05-04 13:05 | 49.93955 | 8.62274 | 6291 ft | 286 kts | 94° |
| 2026-05-04 13:05 | 49.93822 | 8.65396 | 6981 ft | 290 kts | 97° |
| 2026-05-04 13:05 | 49.93339 | 8.68414 | 7772 ft | 289 kts | 116° |
| 2026-05-04 13:06 | 49.92276 | 8.70977 | 8535 ft | 286 kts | 135° |
| 2026-05-04 13:06 | 49.90764 | 8.72940 | 9316 ft | 283 kts | 148° |
| 2026-05-04 13:06 | 49.89135 | 8.74674 | 10080 ft | 285 kts | 146° |
| 2026-05-04 13:06 | 49.87778 | 8.76936 | 10689 ft | 293 kts | 126° |
| 2026-05-04 13:07 | 49.86756 | 8.79801 | 10911 ft | 316 kts | 121° |
| 2026-05-04 13:07 | 49.85687 | 8.82908 | 11044 ft | 337 kts | 121° |
| 2026-05-04 13:07 | 49.84540 | 8.86193 | 11307 ft | 353 kts | 121° |
| 2026-05-04 13:07 | 49.83348 | 8.89547 | 11873 ft | 358 kts | 121° |
| 2026-05-04 13:08 | 49.82129 | 8.92937 | 12484 ft | 362 kts | 122° |
| 2026-05-04 13:08 | 49.80889 | 8.96360 | 13083 ft | 367 kts | 122° |
| 2026-05-04 13:08 | 49.79645 | 8.99773 | 13708 ft | 371 kts | 122° |
| 2026-05-04 13:08 | 49.78370 | 9.03262 | 14277 ft | 375 kts | 122° |
| 2026-05-04 13:09 | 49.77080 | 9.06786 | 14863 ft | 378 kts | 121° |
| 2026-05-04 13:09 | 49.76015 | 9.10540 | 15385 ft | 385 kts | 110° |
| 2026-05-04 13:09 | 49.75321 | 9.14571 | 15891 ft | 389 kts | 109° |
| 2026-05-04 13:09 | 49.74326 | 9.18458 | 16402 ft | 389 kts | 120° |
| 2026-05-04 13:10 | 49.72865 | 9.21969 | 16915 ft | 389 kts | 131° |
| 2026-05-04 13:10 | 49.71089 | 9.25124 | 17442 ft | 391 kts | 134° |
| 2026-05-04 13:10 | 49.69280 | 9.28284 | 17953 ft | 394 kts | 134° |
| 2026-05-04 13:10 | 49.67489 | 9.31437 | 18421 ft | 397 kts | 134° |
| 2026-05-04 13:11 | 49.65663 | 9.34658 | 18854 ft | 400 kts | 134° |
| 2026-05-04 13:11 | 49.63827 | 9.37903 | 19291 ft | 403 kts | 134° |
| 2026-05-04 13:11 | 49.61867 | 9.40979 | 19708 ft | 402 kts | 142° |
| 2026-05-04 13:11 | 49.59606 | 9.43497 | 20133 ft | 401 kts | 152° |
| 2026-05-04 13:12 | 49.57204 | 9.45699 | 20576 ft | 403 kts | 152° |
| 2026-05-04 13:12 | 49.54783 | 9.47909 | 20984 ft | 406 kts | 153° |
| 2026-05-04 13:12 | 49.52347 | 9.50127 | 21405 ft | 408 kts | 153° |
| 2026-05-04 13:12 | 49.49927 | 9.52329 | 21825 ft | 411 kts | 153° |
| 2026-05-04 13:13 | 49.47461 | 9.54571 | 22251 ft | 413 kts | 153° |
| 2026-05-04 13:13 | 49.44982 | 9.56824 | 22682 ft | 416 kts | 153° |
| 2026-05-04 13:13 | 49.42481 | 9.59096 | 23097 ft | 418 kts | 153° |
| 2026-05-04 13:13 | 49.39967 | 9.61380 | 23512 ft | 421 kts | 153° |
| 2026-05-04 13:14 | 49.37438 | 9.63675 | 23861 ft | 423 kts | 153° |
| 2026-05-04 13:14 | 49.34923 | 9.66030 | 24196 ft | 427 kts | 148° |
| 2026-05-04 13:14 | 49.32606 | 9.68928 | 24499 ft | 434 kts | 139° |
| 2026-05-04 13:14 | 49.30463 | 9.72215 | 24818 ft | 437 kts | 138° |
| 2026-05-04 13:15 | 49.28336 | 9.75473 | 25133 ft | 439 kts | 139° |
| 2026-05-04 13:15 | 49.26166 | 9.78788 | 25460 ft | 441 kts | 139° |
| 2026-05-04 13:15 | 49.23986 | 9.82112 | 25774 ft | 444 kts | 139° |
| 2026-05-04 13:15 | 49.21793 | 9.85446 | 26095 ft | 446 kts | 139° |
| 2026-05-04 13:16 | 49.19587 | 9.88794 | 26410 ft | 448 kts | 139° |
| 2026-05-04 13:16 | 49.17371 | 9.92153 | 26725 ft | 450 kts | 139° |
| 2026-05-04 13:16 | 49.15140 | 9.95531 | 27029 ft | 452 kts | 139° |
| 2026-05-04 13:16 | 49.12929 | 9.98873 | 27315 ft | 454 kts | 139° |
| 2026-05-04 13:17 | 49.10679 | 10.02272 | 27606 ft | 456 kts | 139° |
| 2026-05-04 13:17 | 49.08415 | 10.05688 | 27882 ft | 459 kts | 139° |
| 2026-05-04 13:17 | 49.06138 | 10.09116 | 28133 ft | 461 kts | 139° |
| 2026-05-04 13:17 | 49.03823 | 10.12520 | 28415 ft | 463 kts | 140° |
| 2026-05-04 13:18 | 49.01465 | 10.15886 | 28693 ft | 465 kts | 141° |
| 2026-05-04 13:18 | 48.99087 | 10.19216 | 29036 ft | 465 kts | 141° |
| 2026-05-04 13:18 | 48.96703 | 10.22524 | 29407 ft | 464 kts | 141° |
| 2026-05-04 13:18 | 48.94319 | 10.25832 | 29775 ft | 464 kts | 141° |
| 2026-05-04 13:19 | 48.91945 | 10.29149 | 30157 ft | 463 kts | 141° |
| 2026-05-04 13:19 | 48.89583 | 10.32471 | 30470 ft | 463 kts | 141° |
| 2026-05-04 13:19 | 48.87258 | 10.35750 | 30793 ft | 462 kts | 141° |
| 2026-05-04 13:19 | 48.84905 | 10.39071 | 31117 ft | 462 kts | 141° |
| 2026-05-04 13:20 | 48.82559 | 10.42395 | 31451 ft | 461 kts | 140° |
| 2026-05-04 13:20 | 48.80274 | 10.45820 | 31767 ft | 462 kts | 138° |
| 2026-05-04 13:20 | 48.78057 | 10.49346 | 32091 ft | 462 kts | 136° |
| 2026-05-04 13:20 | 48.75880 | 10.52932 | 32405 ft | 462 kts | 136° |
| 2026-05-04 13:21 | 48.73722 | 10.56518 | 32762 ft | 460 kts | 136° |
| 2026-05-04 13:21 | 48.71555 | 10.60087 | 33111 ft | 459 kts | 136° |
| 2026-05-04 13:21 | 48.69380 | 10.63616 | 33452 ft | 458 kts | 137° |
| 2026-05-04 13:21 | 48.67220 | 10.67066 | 33777 ft | 457 kts | 137° |
| 2026-05-04 13:22 | 48.65023 | 10.70539 | 34093 ft | 456 kts | 137° |
| 2026-05-04 13:22 | 48.62826 | 10.74002 | 34360 ft | 456 kts | 137° |
| 2026-05-04 13:22 | 48.60632 | 10.77453 | 34627 ft | 455 kts | 137° |
| 2026-05-04 13:22 | 48.58438 | 10.80910 | 34872 ft | 456 kts | 137° |
| 2026-05-04 13:23 | 48.56257 | 10.84373 | 34968 ft | 455 kts | 137° |
| 2026-05-04 13:23 | 48.51936 | 10.91296 | 34993 ft | 453 kts | 136° |
| 2026-05-04 13:24 | 48.47639 | 10.98168 | 34974 ft | 453 kts | 137° |
| 2026-05-04 13:24 | 48.43267 | 11.05012 | 34975 ft | 453 kts | 137° |
| 2026-05-04 13:25 | 48.36678 | 11.15206 | 34975 ft | 453 kts | 137° |
| 2026-05-04 13:25 | 48.32286 | 11.21999 | 34975 ft | 453 kts | 137° |
| 2026-05-04 13:26 | 48.27903 | 11.28784 | 34962 ft | 453 kts | 136° |
| 2026-05-04 13:26 | 48.24295 | 11.36496 | 34965 ft | 458 kts | 123° |
| 2026-05-04 13:27 | 48.21120 | 11.44779 | 34962 ft | 458 kts | 123° |
| 2026-05-04 13:27 | 48.17913 | 11.53044 | 34963 ft | 458 kts | 123° |
| 2026-05-04 13:28 | 48.14695 | 11.61287 | 34957 ft | 458 kts | 123° |
| 2026-05-04 13:28 | 48.11503 | 11.69474 | 34956 ft | 458 kts | 123° |
| 2026-05-04 13:29 | 48.08290 | 11.77709 | 34953 ft | 458 kts | 123° |
| 2026-05-04 13:29 | 48.05067 | 11.85930 | 34949 ft | 458 kts | 123° |
| 2026-05-04 13:30 | 48.01844 | 11.94132 | 34949 ft | 458 kts | 123° |
| 2026-05-04 13:30 | 47.98639 | 12.02261 | 34950 ft | 457 kts | 123° |
| 2026-05-04 13:31 | 47.95412 | 12.10416 | 34952 ft | 456 kts | 123° |
| 2026-05-04 13:31 | 47.91526 | 12.17767 | 34943 ft | 449 kts | 140° |
| 2026-05-04 13:32 | 47.86781 | 12.23771 | 34932 ft | 447 kts | 143° |
| 2026-05-04 13:32 | 47.82018 | 12.29739 | 34933 ft | 447 kts | 143° |
| 2026-05-04 13:33 | 47.77280 | 12.35650 | 34931 ft | 448 kts | 143° |
| 2026-05-04 13:33 | 47.72507 | 12.41589 | 34926 ft | 447 kts | 143° |
| 2026-05-04 13:34 | 47.67740 | 12.47527 | 34935 ft | 447 kts | 143° |
| 2026-05-04 13:34 | 47.62971 | 12.53442 | 34928 ft | 447 kts | 143° |
| 2026-05-04 13:35 | 47.55742 | 12.62066 | 34934 ft | 447 kts | 144° |
| 2026-05-04 13:36 | 47.50850 | 12.67749 | 34933 ft | 447 kts | 144° |
| 2026-05-04 13:36 | 47.45967 | 12.73449 | 34940 ft | 448 kts | 144° |
| 2026-05-04 13:37 | 47.41085 | 12.79166 | 34964 ft | 448 kts | 144° |
| 2026-05-04 13:37 | 47.36237 | 12.84837 | 34959 ft | 448 kts | 144° |
| 2026-05-04 13:38 | 47.31351 | 12.90529 | 34971 ft | 448 kts | 144° |
| 2026-05-04 13:38 | 47.26458 | 12.96208 | 34966 ft | 448 kts | 144° |
| 2026-05-04 13:39 | 47.21559 | 13.01878 | 34987 ft | 448 kts | 144° |
| 2026-05-04 13:39 | 47.16660 | 13.07548 | 34991 ft | 448 kts | 144° |
| 2026-05-04 13:40 | 47.11794 | 13.13176 | 35008 ft | 448 kts | 144° |
| 2026-05-04 13:40 | 47.06893 | 13.18817 | 35009 ft | 448 kts | 144° |
| 2026-05-04 13:41 | 47.01983 | 13.24440 | 35013 ft | 448 kts | 144° |
| 2026-05-04 13:41 | 46.97072 | 13.30050 | 35013 ft | 448 kts | 144° |
| 2026-05-04 13:42 | 46.89735 | 13.38438 | 35025 ft | 448 kts | 144° |
| 2026-05-04 13:42 | 46.84814 | 13.44044 | 35024 ft | 448 kts | 144° |
| 2026-05-04 13:43 | 46.79887 | 13.49631 | 35032 ft | 448 kts | 144° |
| 2026-05-04 13:43 | 46.74956 | 13.55218 | 35018 ft | 449 kts | 144° |
| 2026-05-04 13:44 | 46.70044 | 13.60774 | 35026 ft | 451 kts | 144° |
| 2026-05-04 13:44 | 46.65079 | 13.66382 | 35027 ft | 452 kts | 145° |
| 2026-05-04 13:45 | 46.60099 | 13.71975 | 35034 ft | 452 kts | 145° |
| 2026-05-04 13:45 | 46.55115 | 13.77572 | 35049 ft | 453 kts | 145° |
| 2026-05-04 13:46 | 46.50123 | 13.83166 | 35043 ft | 453 kts | 145° |
| 2026-05-04 13:46 | 46.45155 | 13.88715 | 35049 ft | 454 kts | 144° |
| 2026-05-04 13:47 | 46.40146 | 13.94303 | 35051 ft | 455 kts | 144° |
| 2026-05-04 13:47 | 46.35120 | 13.99882 | 35064 ft | 455 kts | 144° |
| 2026-05-04 13:48 | 46.30088 | 14.05456 | 35060 ft | 456 kts | 145° |
| 2026-05-04 13:48 | 46.25081 | 14.10990 | 35066 ft | 456 kts | 145° |
| 2026-05-04 13:49 | 46.20032 | 14.16561 | 35069 ft | 457 kts | 145° |
| 2026-05-04 13:49 | 46.14971 | 14.22131 | 35068 ft | 458 kts | 144° |
| 2026-05-04 13:50 | 46.09938 | 14.27659 | 35076 ft | 458 kts | 145° |
| 2026-05-04 13:50 | 46.04872 | 14.33217 | 35075 ft | 458 kts | 144° |
| 2026-05-04 13:51 | 45.99804 | 14.38768 | 35080 ft | 458 kts | 144° |
| 2026-05-04 13:51 | 45.94727 | 14.44309 | 35073 ft | 459 kts | 144° |
| 2026-05-04 13:52 | 45.87076 | 14.52619 | 35059 ft | 460 kts | 145° |
| 2026-05-04 13:53 | 45.82005 | 14.58117 | 35067 ft | 460 kts | 145° |
| 2026-05-04 13:53 | 45.76900 | 14.63642 | 35057 ft | 460 kts | 145° |
| 2026-05-04 13:54 | 45.69229 | 14.71912 | 35066 ft | 460 kts | 144° |
| 2026-05-04 13:55 | 45.61576 | 14.80139 | 35067 ft | 461 kts | 144° |
| 2026-05-04 13:55 | 45.53868 | 14.88394 | 35060 ft | 462 kts | 144° |
| 2026-05-04 13:56 | 45.48717 | 14.93893 | 35071 ft | 463 kts | 144° |
| 2026-05-04 13:57 | 45.40982 | 15.02122 | 35086 ft | 462 kts | 144° |
| 2026-05-04 13:58 | 45.31537 | 15.12144 | 35074 ft | 463 kts | 144° |